Clovis ASC Data

Date Time Air Temperature Relative Humidity Dewpoint Windchill Heat Index Wind Speed Wind Dir. Rain Solar Radiation Soil Temperature Soil Temperature
2m 2m 3m 3m 5cm 10cm
US/Mountain F % F F F MPH deg in MJ/m^2 F F
max avg avg
2021-05-04 00:05:00 44.1 92.4 42.0 39.6 44.1 8.0 15.5 11.8 3.3 12.6 0.00 0.0000000 51.5 55.6
2021-05-04 00:10:00 44.1 92.1 42.0 37.7 44.1 12.8 17.8 11.9 59.4 17.2 0.00 0.0000000 51.4 55.6
2021-05-04 00:15:00 44.1 92.3 42.0 39.3 44.1 8.5 16.2 11.6 28.3 11.3 0.00 0.0000000 51.4 55.5
2021-05-04 00:20:00 44.1 92.4 42.0 38.5 44.1 10.5 17.6 11.3 347.0 18.5 0.00 0.0000000 51.4 55.5
2021-05-04 00:25:00 44.1 91.4 41.8 36.7 44.1 16.5 19.2 12.5 15.9 22.5 0.00 0.0000000 51.4 55.4
2021-05-04 00:30:00 44.2 90.8 41.6 36.9 44.2 15.8 19.6 12.1 37.4 21.0 0.00 0.0000000 51.3 55.3
2021-05-04 00:35:00 44.2 91.7 41.9 37.5 44.2 13.9 17.1 13.1 18.0 19.3 0.00 0.0000000 51.3 55.3
2021-05-04 00:40:00 44.1 91.8 41.9 38.6 44.1 10.3 16.2 12.2 33.6 12.6 0.00 0.0000000 51.3 55.3
2021-05-04 00:45:00 44.1 92.0 41.9 37.1 44.1 14.9 16.7 12.4 2.8 19.5 0.00 0.0000000 51.2 55.2
2021-05-04 00:50:00 44.2 91.6 41.9 37.2 44.2 14.9 20.5 12.9 0.0 15.3 0.00 0.0000000 51.2 55.2
2021-05-04 00:55:00 44.1 92.0 41.9 37.7 44.1 12.8 19.2 12.2 40.5 13.5 0.00 0.0000000 51.2 55.1
2021-05-04 01:00:00 44.0 92.6 42.0 38.7 44.0 9.9 14.6 10.2 354.2 4.0 0.00 0.0000000 51.1 55.1
2021-05-04 01:05:00 44.0 92.4 42.0 38.7 44.0 9.7 14.7 10.7 22.0 3.3 0.00 0.0000000 51.1 55.1
2021-05-04 01:10:00 44.0 92.2 41.9 37.5 44.0 13.1 19.2 10.8 15.6 12.9 0.00 0.0000000 51.1 55.0
2021-05-04 01:15:00 44.0 92.8 42.1 37.9 44.0 11.9 17.2 10.5 0.8 12.4 0.00 0.0000000 51.1 55.0
2021-05-04 01:20:00 43.9 92.8 41.9 38.4 43.9 9.9 15.3 10.2 13.0 10.4 0.00 0.0000000 51.0 55.0
2021-05-04 01:25:00 43.9 92.8 41.9 37.3 43.9 13.1 16.0 11.0 26.8 9.1 0.00 0.0000000 51.0 54.9
2021-05-04 01:30:00 43.9 93.2 42.0 40.2 43.9 6.2 16.2 10.7 345.4 3.7 0.00 0.0000000 51.0 54.9
2021-05-04 01:35:00 43.9 92.4 41.9 38.4 43.9 10.1 18.7 11.0 348.9 6.2 0.00 0.0000000 51.0 54.8
2021-05-04 01:40:00 43.9 92.8 41.9 38.5 43.9 9.7 15.8 10.3 0.8 9.2 0.00 0.0000000 51.0 54.8
2021-05-04 01:45:00 43.8 93.4 42.0 37.4 43.8 12.6 12.8 9.9 346.7 8.4 0.00 0.0000000 51.0 54.8
2021-05-04 01:50:00 43.7 93.4 42.0 38.2 43.7 10.1 15.1 9.0 10.8 6.8 0.00 0.0000000 50.9 54.7
2021-05-04 01:55:00 43.6 93.6 41.9 37.9 43.6 10.6 13.9 10.1 352.9 359.4 0.00 0.0000000 50.9 54.7
2021-05-04 02:00:00 43.7 93.7 42.0 37.9 43.7 10.6 12.4 8.7 318.7 358.7 0.00 0.0000000 50.9 54.7
2021-05-04 02:05:00 43.6 94.2 42.0 36.6 43.6 14.0 14.0 9.4 20.2 2.6 0.00 0.0000000 50.9 54.6
2021-05-04 02:10:00 43.2 94.7 41.8 35.7 43.2 16.0 16.0 11.7 12.8 358.8 0.00 0.0000000 50.9 54.6
2021-05-04 02:15:00 43.3 94.6 41.9 37.1 43.3 11.5 13.5 9.9 7.3 4.5 0.00 0.0000000 50.8 54.6
2021-05-04 02:20:00 43.2 94.1 41.7 36.2 43.2 14.0 15.1 10.4 8.2 359.9 0.00 0.0000000 50.8 54.6
2021-05-04 02:25:00 43.1 93.6 41.4 37.2 43.1 10.6 14.7 10.9 330.4 2.0 0.00 0.0000000 50.8 54.5
2021-05-04 02:30:00 43.2 93.4 41.5 37.1 43.2 11.3 15.1 10.2 0.3 3.5 0.00 0.0000000 50.8 54.5
2021-05-04 02:35:00 43.2 92.0 41.0 38.0 43.2 8.8 14.0 10.0 6.1 2.4 0.00 0.0000000 50.7 54.5
2021-05-04 02:40:00 43.2 91.1 40.8 36.8 43.2 12.1 12.8 9.3 343.5 2.8 0.00 0.0000000 50.7 54.4
2021-05-04 02:45:00 43.3 90.5 40.7 38.0 43.3 9.0 13.1 9.5 354.4 12.2 0.00 0.0000000 50.6 54.4
2021-05-04 02:50:00 43.3 90.1 40.6 37.7 43.3 10.1 13.9 8.6 354.1 14.9 0.00 0.0000000 50.6 54.4
2021-05-04 02:55:00 43.2 89.2 40.2 38.0 43.2 8.8 16.7 10.9 342.4 11.0 0.00 0.0000000 50.5 54.3
2021-05-04 03:00:00 43.1 89.5 40.2 38.2 43.1 8.1 13.9 9.2 323.6 8.2 0.00 0.0000000 50.5 54.3
2021-05-04 03:05:00 43.2 89.2 40.2 38.0 43.2 8.8 14.7 10.9 30.6 10.4 0.00 0.0000000 50.4 54.2
2021-05-04 03:10:00 42.9 89.8 40.1 37.0 42.9 10.5 12.6 9.2 10.2 10.1 0.00 0.0000000 50.3 54.2
2021-05-04 03:15:00 42.7 89.7 39.9 36.5 42.7 11.2 12.8 9.5 36.7 10.1 0.00 0.0000000 50.2 54.2
2021-05-04 03:20:00 42.6 89.7 39.8 36.3 42.6 11.5 12.1 8.2 9.5 16.5 0.00 0.0000000 50.1 54.1
2021-05-04 03:25:00 42.6 89.9 39.8 36.7 42.6 10.3 14.2 8.6 0.4 358.4 0.00 0.0000000 49.9 54.1
2021-05-04 03:30:00 42.5 89.6 39.7 36.7 42.5 10.1 11.7 8.9 342.7 3.7 0.00 0.0000000 49.8 54.0
2021-05-04 03:35:00 42.4 89.4 39.5 37.8 42.4 7.4 14.2 9.3 1.6 0.1 0.00 0.0000000 49.7 53.9
2021-05-04 03:40:00 42.3 89.7 39.5 36.0 42.3 11.3 11.3 8.0 338.0 357.8 0.00 0.0000000 49.6 53.9
2021-05-04 03:45:00 42.3 89.6 39.5 36.8 42.3 9.2 13.5 8.8 4.8 5.8 0.00 0.0000000 49.5 53.8
2021-05-04 03:50:00 42.2 89.7 39.3 36.5 42.2 9.6 11.7 8.3 0.1 356.4 0.00 0.0000000 49.4 53.7
2021-05-04 03:55:00 42.0 89.7 39.2 37.1 42.0 8.0 9.9 7.6 8.3 359.0 0.00 0.0000000 49.2 53.7
2021-05-04 04:00:00 42.0 89.5 39.2 37.6 42.0 6.9 10.6 7.4 27.5 11.3 0.00 0.0000000 49.2 53.6
2021-05-04 04:05:00 41.9 89.7 39.1 37.6 41.9 6.7 9.0 6.9 32.1 0.7 0.00 0.0000000 49.1 53.5
2021-05-04 04:10:00 41.9 89.7 39.1 38.7 41.9 4.9 8.7 5.8 18.7 4.9 0.00 0.0000000 49.0 53.5
2021-05-04 04:15:00 41.8 90.1 39.1 39.3 41.8 4.0 7.8 5.5 45.2 7.4 0.00 0.0000000 48.8 53.4
2021-05-04 04:20:00 41.7 90.7 39.1 38.1 41.7 5.5 8.5 6.0 62.3 358.4 0.00 0.0000000 48.7 53.3
2021-05-04 04:25:00 41.5 91.1 39.1 37.2 41.5 6.5 9.4 6.6 340.5 357.4 0.00 0.0000000 48.7 53.3
2021-05-04 04:30:00 41.4 91.4 39.1 36.6 41.4 7.4 8.7 7.0 7.3 352.8 0.00 0.0000000 48.6 53.2
2021-05-04 04:35:00 41.3 91.6 39.0 36.4 41.3 7.6 9.0 7.4 354.1 349.1 0.00 0.0000000 48.5 53.1
2021-05-04 04:40:00 41.2 92.2 39.1 36.6 41.2 6.9 10.3 7.8 351.3 356.1 0.00 0.0000000 48.4 53.0
2021-05-04 04:45:00 41.2 91.8 39.0 35.3 41.2 9.4 10.8 8.7 350.6 352.7 0.00 0.0000000 48.3 53.0
2021-05-04 04:50:00 41.2 91.7 39.0 34.9 41.2 10.6 10.8 8.9 15.7 356.8 0.00 0.0000000 48.2 52.9
2021-05-04 04:55:00 41.3 90.9 38.9 37.3 41.3 6.0 10.8 7.7 347.3 355.6 0.00 0.0000000 48.1 52.8
2021-05-04 05:00:00 41.2 90.7 38.7 39.0 41.2 3.7 8.5 5.8 344.7 10.8 0.00 0.0000000 48.1 52.8
2021-05-04 05:05:00 41.2 91.0 38.8 37.8 41.2 5.1 8.1 5.0 4.2 7.6 0.00 0.0000000 48.0 52.7
2021-05-04 05:10:00 40.9 91.2 38.5 38.3 40.9 4.0 7.8 5.2 6.9 9.5 0.00 0.0000000 47.9 52.6
2021-05-04 05:15:00 40.8 91.4 38.5 35.8 40.8 7.6 8.3 6.1 25.7 22.3 0.00 0.0000000 47.8 52.6
2021-05-04 05:20:00 40.7 91.9 38.5 37.2 40.7 5.1 7.8 5.9 28.0 21.5 0.00 0.0000000 47.8 52.5
2021-05-04 05:25:00 40.5 92.5 38.5 36.6 40.5 5.5 7.6 5.1 3.3 14.7 0.00 0.0000000 47.7 52.4
2021-05-04 05:30:00 40.5 92.5 38.4 38.0 40.5 3.8 8.3 4.7 2.4 10.0 0.00 0.0000000 47.6 52.4
2021-05-04 05:35:00 40.4 92.7 38.4 35.3 40.4 7.6 7.6 5.4 23.0 6.9 0.00 0.0000000 47.5 52.3
2021-05-04 05:40:00 40.5 92.6 38.5 36.8 40.5 5.3 7.8 5.2 6.0 1.3 0.00 0.0000000 47.5 52.3
2021-05-04 05:45:00 40.5 92.7 38.5 36.9 40.5 5.1 7.8 5.9 7.9 20.0 0.00 0.0000000 47.4 52.2
2021-05-04 05:50:00 40.4 92.6 38.4 36.1 40.4 6.2 8.3 6.0 29.7 18.7 0.00 0.0000000 47.3 52.1
2021-05-04 05:55:00 40.3 92.8 38.4 36.3 40.3 5.8 6.7 4.8 331.5 2.6 0.00 0.0000000 47.3 52.1
2021-05-04 06:00:00 40.3 92.5 38.3 36.5 40.3 5.5 6.5 4.8 3.5 358.9 0.00 0.0000437 47.2 52.0
2021-05-04 06:05:00 40.4 92.7 38.5 37.9 40.4 3.8 6.0 4.5 25.7 2.8 0.00 0.0006033 47.1 51.9
2021-05-04 06:10:00 40.5 92.1 38.4 37.4 40.5 4.6 7.4 5.1 344.8 5.5 0.00 0.0020361 47.0 51.9
2021-05-04 06:15:00 40.5 92.2 38.4 35.9 40.5 6.5 8.1 6.1 334.1 351.1 0.00 0.0028930 47.0 51.8
2021-05-04 06:20:00 40.5 91.8 38.3 36.5 40.5 5.6 8.0 6.6 0.1 353.2 0.00 0.0100169 46.9 51.7
2021-05-04 06:25:00 40.8 91.1 38.4 36.1 40.8 7.1 8.0 6.8 2.6 354.2 0.00 0.0184735 46.9 51.7
2021-05-04 06:30:00 41.1 90.5 38.6 36.6 41.1 6.7 7.1 5.9 0.8 353.1 0.00 0.0213583 46.8 51.6
2021-05-04 06:35:00 41.4 89.8 38.7 36.7 41.4 7.2 8.5 6.9 339.8 350.4 0.00 0.0252292 46.8 51.6
2021-05-04 06:40:00 41.6 89.7 38.8 36.6 41.6 7.8 9.4 8.1 0.7 348.8 0.00 0.0296101 46.8 51.5
2021-05-04 06:45:00 41.7 89.7 38.9 37.1 41.7 7.1 9.9 7.9 331.4 351.5 0.00 0.0342473 46.8 51.5
2021-05-04 06:50:00 42.1 88.4 38.9 37.6 42.1 7.1 10.3 7.1 353.7 355.3 0.00 0.0385643 46.9 51.4
2021-05-04 06:55:00 42.5 88.2 39.3 39.2 42.5 5.3 8.7 5.8 0.1 359.3 0.00 0.0429404 46.9 51.4
2021-05-04 07:00:00 43.0 86.5 39.3 40.6 43.0 4.2 7.2 5.5 70.6 12.5 0.00 0.0466415 47.0 51.4
2021-05-04 07:05:00 43.3 85.2 39.1 40.1 43.3 5.3 9.9 6.1 29.4 19.8 0.00 0.0515259 47.1 51.3
2021-05-04 07:10:00 43.5 84.2 39.1 38.5 43.5 8.7 10.6 7.4 10.8 24.4 0.00 0.0562624 47.2 51.3
2021-05-04 07:15:00 43.9 83.4 39.2 39.0 43.9 8.7 11.5 8.0 21.1 20.0 0.00 0.0619623 47.3 51.3
2021-05-04 07:20:00 44.1 82.5 39.1 39.8 44.1 7.6 11.2 7.9 346.9 11.6 0.00 0.0677884 47.5 51.3
2021-05-04 07:25:00 44.3 82.3 39.2 40.3 44.3 7.1 11.7 7.6 16.0 14.9 0.00 0.0738006 47.6 51.3
2021-05-04 07:30:00 44.9 81.6 39.6 41.8 44.9 5.6 9.7 6.3 2.0 12.6 0.00 0.0786452 47.8 51.3
2021-05-04 07:35:00 45.1 81.1 39.6 41.1 45.1 7.2 11.9 7.3 337.5 5.7 0.00 0.0834435 48.1 51.4
2021-05-04 07:40:00 45.2 77.4 38.6 41.0 45.2 7.8 9.7 7.0 353.7 8.2 0.00 0.0886449 48.3 51.4
2021-05-04 07:45:00 45.2 77.9 38.7 41.0 45.2 7.8 13.1 8.2 11.0 7.2 0.00 0.0936979 48.5 51.4
2021-05-04 07:50:00 45.4 77.8 38.9 41.1 45.4 8.1 10.6 7.7 57.9 2.7 0.00 0.0989907 48.8 51.5
2021-05-04 07:55:00 45.6 77.5 38.9 41.6 45.6 7.4 12.4 8.3 313.1 13.5 0.00 0.1046853 49.1 51.6
2021-05-04 08:00:00 46.2 75.7 39.0 42.3 46.2 7.8 10.8 7.2 49.0 9.1 0.00 0.1093001 49.4 51.6
2021-05-04 08:05:00 46.7 76.4 39.6 43.5 46.7 6.3 10.8 7.4 56.7 6.7 0.00 0.1139071 49.7 51.7
2021-05-04 08:10:00 46.6 73.8 38.7 42.6 46.6 8.1 11.2 7.8 5.1 11.9 0.00 0.1183760 50.0 51.8
2021-05-04 08:15:00 46.9 74.4 39.1 44.2 46.9 5.5 10.6 7.1 26.2 13.4 0.00 0.1259619 50.3 51.9
2021-05-04 08:20:00 47.0 71.0 38.1 42.5 47.0 9.6 11.7 8.0 18.7 11.6 0.00 0.1193981 50.6 52.0
2021-05-04 08:25:00 47.3 70.7 38.3 44.3 47.3 6.3 9.7 6.8 54.4 22.9 0.00 0.1336794 50.9 52.1
2021-05-04 08:30:00 47.5 74.3 39.7 44.5 47.5 6.2 11.0 7.2 3.2 19.7 0.00 0.1384138 51.2 52.3
2021-05-04 08:35:00 47.5 72.1 38.9 43.0 47.5 9.6 9.6 7.1 353.2 12.3 0.00 0.1424081 51.5 52.4
2021-05-04 08:40:00 47.2 72.9 38.9 45.0 47.2 4.7 11.0 7.8 30.1 6.5 0.00 0.0850776 51.7 52.5
2021-05-04 08:45:00 47.4 72.0 38.8 44.5 47.4 6.2 13.0 7.1 4.0 3.7 0.00 0.1070313 52.0 52.7
2021-05-04 08:50:00 47.6 71.2 38.8 44.5 47.6 6.7 8.5 6.7 1.7 17.8 0.00 0.1443976 52.2 52.8
2021-05-04 08:55:00 48.1 70.3 38.9 43.6 48.1 9.9 10.1 7.4 48.0 17.8 0.00 0.1656780 52.4 53.0
2021-05-04 09:00:00 48.2 69.2 38.6 44.3 48.2 8.7 11.0 8.3 45.4 44.5 0.00 0.1706905 52.6 53.2
2021-05-04 09:05:00 48.5 72.7 40.1 44.2 48.5 9.7 11.5 8.2 67.9 48.4 0.00 0.1986167 52.9 53.3
2021-05-04 09:10:00 48.8 74.3 41.0 45.4 48.8 7.6 10.6 8.3 73.3 49.4 0.00 0.1698732 53.3 53.5
2021-05-04 09:15:00 49.2 74.6 41.4 45.3 49.2 9.0 11.0 9.2 18.0 40.6 0.00 0.2154066 53.6 53.6
2021-05-04 09:20:00 49.5 69.0 39.8 46.0 49.5 8.5 10.8 7.8 63.6 44.3 0.00 0.2354974 53.9 53.8
2021-05-04 09:25:00 48.2 66.4 37.6 45.3 48.2 6.5 10.5 8.2 42.1 46.5 0.00 0.1234328 54.4 54.0
2021-05-04 09:30:00 48.5 67.7 38.3 45.5 48.5 6.9 7.1 5.2 26.7 18.7 0.00 0.1168220 54.8 54.2
2021-05-04 09:35:00 48.4 66.0 37.5 46.2 48.4 5.1 9.4 7.0 38.7 52.7 0.00 0.1198795 55.1 54.4
2021-05-04 09:40:00 48.4 67.1 38.0 46.2 48.4 5.3 8.8 5.4 75.9 22.4 0.00 0.0829139 55.4 54.7
2021-05-04 09:45:00 48.9 68.6 39.0 47.3 48.9 4.4 8.0 5.6 20.0 11.2 0.00 0.1045292 55.6 54.9
2021-05-04 09:50:00 49.2 64.8 37.8 46.8 49.2 5.6 7.2 4.7 42.0 21.9 0.00 0.0935551 55.8 55.1
2021-05-04 09:55:00 49.4 71.4 40.6 46.1 49.4 7.8 8.8 6.4 55.1 38.5 0.00 0.1179885 55.9 55.3
2021-05-04 10:00:00 49.4 64.7 38.0 47.0 49.4 5.8 9.7 6.7 37.7 35.0 0.00 0.1378684 56.1 55.4
2021-05-04 10:05:00 49.4 67.3 39.0 48.4 49.4 3.7 8.3 6.2 332.9 41.1 0.00 0.1543740 56.2 55.6
2021-05-04 10:10:00 50.0 60.4 36.8 49.1 50.0 3.7 9.2 5.7 63.1 48.3 0.00 0.1711269 56.4 55.7
2021-05-04 10:15:00 50.3 61.5 37.5 50.3 50.3 4.0 9.6 6.5 30.5 52.4 0.00 0.2065759 56.7 55.9
2021-05-04 10:20:00 50.8 59.6 37.2 50.8 50.8 6.5 8.5 6.0 29.0 23.3 0.00 0.1773706 56.9 56.0
2021-05-04 10:25:00 51.1 61.6 38.4 51.1 51.1 6.7 8.8 5.4 326.6 3.7 0.00 0.2468261 57.3 56.2
2021-05-04 10:30:00 51.7 60.4 38.5 51.7 51.7 4.7 11.9 5.5 18.2 20.0 0.00 0.1802692 57.6 56.3
2021-05-04 10:35:00 51.2 60.1 37.8 51.2 51.2 3.7 7.6 4.5 0.1 352.2 0.00 0.0955043 58.0 56.5
2021-05-04 10:40:00 51.1 60.5 37.9 51.1 51.1 4.4 6.0 4.5 353.2 4.2 0.00 0.2050956 58.3 56.7
2021-05-04 10:45:00 52.2 62.8 39.9 52.2 52.2 4.0 11.9 7.3 38.8 36.6 0.00 0.2176029 58.6 56.9
2021-05-04 10:50:00 52.0 61.7 39.3 52.0 52.0 7.1 7.4 5.5 330.1 355.6 0.00 0.1514019 58.8 57.1
2021-05-04 10:55:00 52.1 57.4 37.5 52.1 52.1 3.5 8.8 5.6 46.0 29.7 0.00 0.3240539 59.0 57.3
2021-05-04 11:00:00 52.2 56.2 37.1 52.2 52.2 2.4 8.1 5.2 0.1 27.7 0.00 0.2543654 59.2 57.5
2021-05-04 11:05:00 52.6 54.8 36.9 52.6 52.6 4.2 7.1 4.3 57.0 64.8 0.00 0.1922036 59.4 57.7
2021-05-04 11:10:00 52.8 58.1 38.5 52.8 52.8 7.8 9.6 3.5 10.2 26.5 0.00 0.1466641 59.6 58.0
2021-05-04 11:15:00 52.5 57.0 37.7 52.5 52.5 4.4 7.2 5.3 42.7 36.6 0.00 0.1533267 59.8 58.2
2021-05-04 11:20:00 52.6 55.3 37.0 52.6 52.6 2.6 11.2 6.2 71.5 58.5 0.00 0.1919995 60.0 58.5
2021-05-04 11:25:00 53.1 54.9 37.3 53.1 53.1 6.9 9.0 5.1 311.0 345.1 0.00 0.1738537 60.3 58.7
2021-05-04 11:30:00 52.8 59.1 38.9 52.8 52.8 5.1 10.5 5.9 351.2 316.1 0.00 0.1315274 60.5 59.0
2021-05-04 11:35:00 53.6 56.2 38.4 53.6 53.6 6.3 9.7 6.5 340.8 352.6 0.00 0.2369539 60.8 59.2
2021-05-04 11:40:00 54.4 52.2 37.3 54.4 54.4 3.8 8.5 5.0 12.0 9.3 0.00 0.2554378 61.0 59.5
2021-05-04 11:45:00 54.2 55.3 38.5 54.2 54.2 6.3 6.9 3.7 332.8 318.4 0.00 0.1519361 61.3 59.7
2021-05-04 11:50:00 55.5 53.0 38.6 55.5 55.5 6.0 11.9 7.8 50.5 346.5 0.00 0.2786920 61.6 59.9
2021-05-04 11:55:00 54.7 51.0 36.9 54.7 54.7 6.9 10.6 5.9 22.9 2.9 0.00 0.2081501 61.9 60.1
2021-05-04 12:00:00 54.7 53.6 38.2 54.7 54.7 3.0 5.8 3.1 170.4 326.3 0.00 0.1308393 62.2 60.4
2021-05-04 12:05:00 54.8 51.7 37.3 54.8 54.8 3.7 6.9 3.8 5.1 77.0 0.00 0.1476185 62.5 60.6
2021-05-04 12:10:00 56.1 49.4 37.4 56.1 56.1 8.1 8.1 3.4 281.1 282.6 0.00 0.2925559 62.8 60.9
2021-05-04 12:15:00 55.6 49.4 36.9 55.6 55.6 3.7 6.5 4.0 272.0 278.8 0.00 0.1523106 63.2 61.1
2021-05-04 12:20:00 54.5 51.0 36.8 54.5 54.5 3.7 8.3 5.1 309.6 309.8 0.00 0.1420771 63.7 61.3
2021-05-04 12:25:00 54.8 50.0 36.5 54.8 54.8 6.2 8.0 4.4 249.9 278.7 0.00 0.1586705 64.1 61.5
2021-05-04 12:30:00 55.6 49.5 37.0 55.6 55.6 7.1 7.8 5.0 272.8 247.5 0.00 0.1589119 64.5 61.8
2021-05-04 12:35:00 55.3 51.4 37.7 55.3 55.3 6.2 7.4 5.1 263.2 280.2 0.00 0.2948203 64.8 62.0
2021-05-04 12:40:00 55.6 49.4 36.9 55.6 55.6 4.2 9.6 5.5 321.1 263.3 0.00 0.3386434 65.1 62.2
2021-05-04 12:45:00 55.8 49.5 37.2 55.8 55.8 2.4 6.2 3.0 337.1 304.8 0.00 0.1285741 65.7 62.4
2021-05-04 12:50:00 56.7 47.9 37.2 56.7 56.7 4.0 10.5 6.3 339.0 334.5 0.00 0.3032350 66.3 62.6
2021-05-04 12:55:00 57.3 46.7 37.1 57.3 57.3 2.2 8.5 4.7 349.3 337.3 0.00 0.3603473 66.8 62.8
2021-05-04 13:00:00 57.8 43.9 35.9 57.8 57.8 4.0 8.7 4.9 315.4 357.3 0.00 0.3724003 67.5 63.0
2021-05-04 13:05:00 57.3 45.9 36.7 57.3 57.3 6.0 7.8 4.2 322.4 271.9 0.00 0.3869216 68.4 63.2
2021-05-04 13:10:00 57.8 46.6 37.5 57.8 57.8 9.4 10.1 6.9 261.1 275.6 0.00 0.2812181 69.4 63.5
2021-05-04 13:15:00 58.0 48.4 38.7 58.0 58.0 8.5 10.5 6.9 244.0 241.6 0.00 0.3771921 70.3 63.8
2021-05-04 13:20:00 57.2 46.3 36.8 57.2 57.2 5.5 10.3 7.0 252.9 252.2 0.00 0.1627026 71.2 64.1
2021-05-04 13:25:00 58.0 44.8 36.7 58.0 58.0 5.1 8.3 5.5 319.6 323.2 0.00 0.1740289 71.9 64.5
2021-05-04 13:30:00 57.6 46.7 37.3 57.6 57.6 8.5 9.9 5.2 345.5 335.4 0.00 0.1436343 72.5 64.8
2021-05-04 13:35:00 58.0 44.9 36.7 58.0 58.0 4.0 7.8 4.9 310.0 311.5 0.00 0.2640431 72.8 65.2
2021-05-04 13:40:00 59.2 43.3 36.9 59.2 59.2 4.6 7.2 4.1 341.6 13.6 0.00 0.3096501 73.0 65.5
2021-05-04 13:45:00 58.7 44.0 36.9 58.7 58.7 6.0 6.9 4.4 342.8 4.4 0.00 0.1981951 73.3 65.8
2021-05-04 13:50:00 59.2 44.9 37.8 59.2 59.2 6.3 10.5 5.6 301.0 277.3 0.00 0.1622594 73.7 66.1
2021-05-04 13:55:00 58.0 46.5 37.6 58.0 58.0 5.8 12.1 8.8 342.8 312.9 0.00 0.1887615 74.0 66.3
2021-05-04 14:00:00 59.4 47.6 39.5 59.4 59.4 6.7 9.9 7.8 268.8 269.9 0.00 0.3655534 74.2 66.7
2021-05-04 14:05:00 59.2 45.4 38.1 59.2 59.2 6.9 11.2 7.7 274.9 241.5 0.00 0.3578221 74.4 66.9
2021-05-04 14:10:00 59.5 44.0 37.6 59.5 59.5 5.3 11.2 7.3 306.5 282.0 0.00 0.3484032 74.8 67.1
2021-05-04 14:15:00 60.0 41.2 36.4 60.0 60.0 5.6 9.6 7.3 279.2 278.9 0.00 0.3279061 75.3 67.4
2021-05-04 14:20:00 60.0 44.1 38.0 60.0 60.0 3.1 8.7 6.0 281.6 294.1 0.00 0.3129461 75.9 67.7
2021-05-04 14:25:00 60.2 42.3 37.2 60.2 60.2 4.2 9.2 6.2 330.3 305.4 0.00 0.2993929 76.5 68.0
2021-05-04 14:30:00 60.6 43.5 38.2 60.6 60.6 11.5 11.9 6.2 312.3 314.2 0.00 0.2924057 77.1 68.3
2021-05-04 14:35:00 59.9 41.7 36.6 59.9 59.9 8.7 11.0 7.1 309.0 298.8 0.00 0.2694253 77.6 68.6
2021-05-04 14:40:00 59.5 42.0 36.4 59.5 59.5 3.0 8.0 5.1 251.9 272.8 0.00 0.2677491 78.1 69.0
2021-05-04 14:45:00 60.0 41.7 36.7 60.0 60.0 4.7 6.3 4.5 326.7 335.5 0.00 0.2365455 78.5 69.3
2021-05-04 14:50:00 60.5 41.3 36.9 60.5 60.5 2.1 6.3 3.8 83.5 292.5 0.00 0.2839167 78.9 69.6
2021-05-04 14:55:00 61.0 40.5 36.8 61.0 61.0 5.1 5.1 3.7 268.7 331.0 0.00 0.2762769 79.2 69.9
2021-05-04 15:00:00 60.8 40.7 36.7 60.8 60.8 3.7 6.3 3.6 173.3 269.4 0.00 0.2768232 79.6 70.2
2021-05-04 15:05:00 62.2 39.3 37.1 62.2 62.2 7.2 8.3 4.2 303.6 259.6 0.00 0.2711875 80.0 70.5
2021-05-04 15:10:00 61.4 40.7 37.4 61.4 61.4 4.0 11.2 6.8 224.2 267.3 0.00 0.2694810 80.4 70.8
2021-05-04 15:15:00 61.0 43.0 38.3 61.0 61.0 5.6 10.5 7.0 342.8 274.2 0.00 0.2673508 80.7 71.1
2021-05-04 15:20:00 61.0 40.6 36.9 61.0 61.0 7.1 8.7 6.2 342.7 317.1 0.00 0.2649758 81.0 71.4
2021-05-04 15:25:00 61.3 41.4 37.6 61.3 61.3 1.5 5.6 3.2 165.5 19.1 0.00 0.2758451 81.3 71.7
2021-05-04 15:30:00 62.4 38.8 37.0 62.4 62.4 6.2 11.0 6.4 197.4 242.9 0.00 0.2718830 81.5 72.0
2021-05-04 15:35:00 62.0 41.9 38.6 62.0 62.0 8.8 10.5 6.5 214.2 234.1 0.00 0.2559884 81.8 72.2
2021-05-04 15:40:00 61.9 39.4 37.0 61.9 61.9 5.1 8.7 5.7 262.3 250.3 0.00 0.2428033 82.1 72.5
2021-05-04 15:45:00 62.5 39.1 37.3 62.5 62.5 7.4 10.8 7.2 248.5 261.3 0.00 0.2395504 82.3 72.7
2021-05-04 15:50:00 62.0 39.0 36.7 62.0 62.0 4.6 10.6 8.2 309.2 276.2 0.00 0.2340659 82.5 73.0
2021-05-04 15:55:00 62.7 38.8 37.3 62.7 62.7 9.7 9.7 4.0 298.1 265.2 0.00 0.2318670 82.6 73.2
2021-05-04 16:00:00 62.7 38.3 36.9 62.7 62.7 8.7 9.4 6.8 322.2 281.4 0.00 0.2240586 82.6 73.5
2021-05-04 16:05:00 62.1 42.6 39.1 62.1 62.1 7.4 9.9 7.4 240.5 237.6 0.00 0.2112335 82.7 73.7
2021-05-04 16:10:00 61.9 39.6 37.0 61.9 61.9 3.8 10.3 4.8 137.3 263.9 0.00 0.2198247 82.8 73.9
2021-05-04 16:15:00 62.8 40.7 38.6 62.8 62.8 3.0 6.7 3.4 216.5 152.7 0.00 0.2168615 82.8 74.0
2021-05-04 16:20:00 63.0 38.3 37.2 63.0 63.0 8.3 8.7 5.5 262.4 245.4 0.00 0.2046736 82.9 74.2
2021-05-04 16:25:00 62.7 38.1 36.8 62.7 62.7 10.8 10.8 5.6 255.8 216.2 0.00 0.2031861 82.9 74.3
2021-05-04 16:30:00 61.8 39.2 36.7 61.8 61.8 3.7 10.5 5.9 224.2 210.9 0.00 0.1219731 82.9 74.5
2021-05-04 16:35:00 62.5 39.0 37.2 62.5 62.5 4.9 10.1 4.8 250.3 238.9 0.00 0.1774722 82.9 74.6
2021-05-04 16:40:00 62.8 37.9 36.7 62.8 62.8 3.0 8.3 4.0 295.7 279.6 0.00 0.1825520 82.7 74.7
2021-05-04 16:45:00 63.3 37.2 36.7 63.3 63.3 4.2 5.8 3.7 308.0 334.6 0.00 0.1725119 82.6 74.8
2021-05-04 16:50:00 62.8 39.4 37.7 62.8 62.8 4.7 6.5 4.3 249.4 242.1 0.00 0.1503937 82.5 74.9
2021-05-04 16:55:00 62.7 37.4 36.3 62.7 62.7 6.2 8.7 5.4 247.3 230.9 0.00 0.1607058 82.5 75.0
2021-05-04 17:00:00 62.9 37.2 36.3 62.9 62.9 3.1 6.5 4.4 2.3 264.7 0.00 0.1565045 82.3 75.1
2021-05-04 17:05:00 62.9 38.7 37.3 62.9 62.9 3.8 4.4 3.3 46.9 35.7 0.00 0.1505867 82.2 75.1
2021-05-04 17:10:00 63.0 37.2 36.5 63.0 63.0 3.5 5.1 3.6 122.7 90.0 0.00 0.1449802 82.1 75.1
2021-05-04 17:15:00 63.8 38.7 38.2 63.8 63.8 7.8 7.8 4.9 233.7 219.1 0.00 0.1395757 82.0 75.2
2021-05-04 17:20:00 63.1 37.2 36.5 63.1 63.1 7.1 12.1 8.0 256.2 258.7 0.00 0.1349843 81.8 75.2
2021-05-04 17:25:00 62.9 37.9 36.8 62.9 62.9 5.3 10.3 7.2 276.7 268.5 0.00 0.1309349 81.6 75.3
2021-05-04 17:30:00 63.4 38.1 37.4 63.4 63.4 8.1 9.0 6.0 279.4 262.0 0.00 0.1276392 81.4 75.3
2021-05-04 17:35:00 63.9 37.0 37.1 63.9 63.9 2.1 9.7 5.5 13.5 291.1 0.00 0.1260560 81.2 75.3
2021-05-04 17:40:00 64.1 36.5 37.0 64.1 64.1 2.4 7.6 3.8 302.5 309.7 0.00 0.1231251 80.9 75.3
2021-05-04 17:45:00 63.8 36.3 36.5 63.8 63.8 7.2 9.2 5.4 236.6 252.3 0.00 0.1108677 80.7 75.3
2021-05-04 17:50:00 63.3 39.3 38.1 63.3 63.3 7.2 10.3 8.7 241.6 230.8 0.00 0.1033122 80.5 75.2
2021-05-04 17:55:00 63.4 36.5 36.3 63.4 63.4 8.0 11.3 8.6 299.1 263.9 0.00 0.0969588 80.2 75.2
2021-05-04 18:00:00 63.3 39.0 38.0 63.3 63.3 8.5 8.8 7.0 239.6 254.3 0.00 0.0913680 79.9 75.1
2021-05-04 18:05:00 62.9 36.9 36.1 62.9 62.9 4.4 8.7 5.2 335.7 273.3 0.00 0.0890884 79.6 75.1
2021-05-04 18:10:00 63.3 37.0 36.6 63.3 63.3 3.7 7.1 4.2 197.5 225.7 0.00 0.0808358 79.2 75.0
2021-05-04 18:15:00 62.9 37.4 36.5 62.9 62.9 3.0 9.6 4.8 179.4 194.6 0.00 0.0757004 78.8 74.9
2021-05-04 18:20:00 63.1 38.1 37.1 63.1 63.1 5.5 7.1 4.4 225.2 187.1 0.00 0.0709598 78.4 74.9
2021-05-04 18:25:00 63.0 36.4 35.9 63.0 63.0 5.8 7.8 5.6 212.2 215.0 0.00 0.0661709 77.9 74.7
2021-05-04 18:30:00 62.9 37.1 36.3 62.9 62.9 4.6 6.5 5.4 195.5 197.2 0.00 0.0613956 77.5 74.6
2021-05-04 18:35:00 62.9 36.1 35.6 62.9 62.9 5.1 5.8 4.5 207.6 209.4 0.00 0.0566003 77.1 74.5
2021-05-04 18:40:00 62.9 37.4 36.5 62.9 62.9 3.0 5.5 3.4 167.4 202.1 0.00 0.0518136 76.6 74.4
2021-05-04 18:45:00 62.9 37.9 36.8 62.9 62.9 4.2 5.3 4.2 187.0 181.1 0.00 0.0470272 76.2 74.2
2021-05-04 18:50:00 62.8 36.2 35.6 62.8 62.8 2.6 3.8 2.7 177.2 174.1 0.00 0.0422651 75.8 74.1
2021-05-04 18:55:00 62.9 39.3 37.7 62.9 62.9 2.8 3.0 2.4 143.7 135.2 0.00 0.0377217 75.5 74.0
2021-05-04 19:00:00 62.1 40.7 37.9 62.1 62.1 5.3 6.0 4.8 147.1 153.2 0.00 0.0334066 75.1 73.8
2021-05-04 19:05:00 61.9 38.8 36.5 61.9 61.9 5.5 5.6 4.3 124.6 147.5 0.00 0.0293129 74.7 73.6
2021-05-04 19:10:00 61.4 40.6 37.3 61.4 61.4 5.8 7.8 5.9 147.2 137.3 0.00 0.0253429 74.3 73.5
2021-05-04 19:15:00 60.9 42.2 37.7 60.9 60.9 6.3 7.4 6.0 147.0 140.0 0.00 0.0213574 73.9 73.3
2021-05-04 19:20:00 60.2 43.3 37.8 60.2 60.2 6.2 6.9 6.2 130.8 135.4 0.00 0.0166934 73.5 73.1
2021-05-04 19:25:00 60.2 43.2 37.8 60.2 60.2 5.3 6.2 5.4 141.0 145.5 0.00 0.0129778 73.0 72.9
2021-05-04 19:30:00 59.8 45.4 38.7 59.8 59.8 6.7 6.9 5.9 127.9 140.4 0.00 0.0073852 72.6 72.6
2021-05-04 19:35:00 58.9 48.8 39.7 58.9 58.9 4.7 6.3 5.4 137.6 136.9 0.00 0.0029793 72.1 72.4
2021-05-04 19:40:00 58.3 49.9 39.7 58.3 58.3 5.6 6.2 4.9 158.4 155.6 0.00 0.0010186 71.7 72.2
2021-05-04 19:45:00 57.7 52.2 40.3 57.7 57.7 6.0 6.0 5.2 155.2 162.3 0.00 0.0000708 71.3 72.0
2021-05-04 19:50:00 57.0 53.5 40.3 57.0 57.0 5.5 8.1 6.6 163.5 164.4 0.00 0.0000000 70.8 71.8
2021-05-04 19:55:00 56.4 55.3 40.6 56.4 56.4 7.6 7.8 6.2 156.1 164.1 0.00 0.0000000 70.4 71.6
2021-05-04 20:00:00 56.3 55.8 40.7 56.3 56.3 6.9 8.8 7.3 151.5 163.6 0.00 0.0000000 70.0 71.3
2021-05-04 20:05:00 56.1 56.6 40.9 56.1 56.1 7.6 8.5 7.0 144.3 164.9 0.00 0.0000000 69.6 71.1
2021-05-04 20:10:00 55.8 56.9 40.7 55.8 55.8 6.2 8.0 6.8 166.8 164.3 0.00 0.0000000 69.2 70.8
2021-05-04 20:15:00 55.7 56.8 40.6 55.7 55.7 7.1 7.8 6.6 163.9 164.3 0.00 0.0000000 68.8 70.6
2021-05-04 20:20:00 55.8 56.6 40.7 55.8 55.8 9.2 9.2 7.6 168.6 166.0 0.00 0.0000000 68.4 70.4
2021-05-04 20:25:00 55.6 57.5 40.8 55.6 55.6 9.0 9.0 7.5 158.9 164.9 0.00 0.0000000 68.0 70.1
2021-05-04 20:30:00 55.5 58.2 41.1 55.5 55.5 7.4 10.3 7.9 161.7 162.1 0.00 0.0000000 67.6 69.9
2021-05-04 20:35:00 55.3 59.1 41.3 55.3 55.3 6.2 9.0 7.5 148.2 161.4 0.00 0.0000000 67.3 69.7
2021-05-04 20:40:00 55.0 59.5 41.2 55.0 55.0 7.6 8.5 7.5 156.6 162.3 0.00 0.0000000 67.0 69.5
2021-05-04 20:45:00 54.8 59.9 41.1 54.8 54.8 8.1 8.8 7.9 167.2 166.1 0.00 0.0000000 66.6 69.3
2021-05-04 20:50:00 54.6 60.6 41.3 54.6 54.6 6.9 8.3 7.3 161.2 164.0 0.00 0.0000000 66.3 69.0
2021-05-04 20:55:00 54.4 60.9 41.2 54.4 54.4 6.7 8.7 7.4 158.9 161.6 0.00 0.0000000 66.0 68.8
2021-05-04 21:00:00 54.1 61.9 41.3 54.1 54.1 6.9 8.3 6.9 143.5 155.3 0.00 0.0000000 65.7 68.6
2021-05-04 21:05:00 53.5 63.6 41.4 53.5 53.5 5.8 6.7 6.0 158.9 158.0 0.00 0.0000000 65.4 68.4
2021-05-04 21:10:00 52.6 65.8 41.5 52.6 52.6 4.9 7.1 5.6 164.3 164.7 0.00 0.0000000 65.1 68.1
2021-05-04 21:15:00 52.6 65.8 41.5 52.6 52.6 5.5 6.3 5.7 167.0 165.4 0.00 0.0000000 64.8 67.9
2021-05-04 21:20:00 52.5 65.7 41.4 52.5 52.5 5.8 6.7 6.1 160.3 167.1 0.00 0.0000000 64.6 67.7
2021-05-04 21:25:00 52.5 65.4 41.2 52.5 52.5 6.0 7.4 6.5 164.7 169.6 0.00 0.0000000 64.3 67.5
2021-05-04 21:30:00 52.2 66.1 41.2 52.2 52.2 5.6 6.9 6.1 173.1 167.6 0.00 0.0000000 64.0 67.4
2021-05-04 21:35:00 52.0 66.5 41.2 52.0 52.0 6.0 6.0 5.5 166.7 165.3 0.00 0.0000000 63.8 67.1
2021-05-04 21:40:00 51.7 67.2 41.2 51.7 51.7 4.4 6.3 5.1 164.3 162.3 0.00 0.0000000 63.5 66.9
2021-05-04 21:45:00 51.5 67.8 41.3 51.5 51.5 6.0 6.0 5.0 148.0 161.4 0.00 0.0000000 63.3 66.7
2021-05-04 21:50:00 51.7 67.7 41.4 51.7 51.7 6.0 6.9 5.9 165.1 162.7 0.00 0.0000000 63.0 66.6
2021-05-04 21:55:00 51.5 68.1 41.4 51.5 51.5 5.6 6.9 5.9 162.8 162.7 0.00 0.0000000 62.8 66.3
2021-05-04 22:00:00 51.5 67.5 41.1 51.5 51.5 6.2 7.2 6.0 159.2 159.7 0.00 0.0000000 62.6 66.2
2021-05-04 22:05:00 51.3 67.5 40.9 51.3 51.3 6.2 6.3 5.9 153.2 158.3 0.00 0.0000000 62.3 66.0
2021-05-04 22:10:00 51.3 68.2 41.1 51.3 51.3 4.9 6.2 5.3 135.2 155.5 0.00 0.0000000 62.1 65.8
2021-05-04 22:15:00 50.9 69.3 41.2 50.9 50.9 6.0 6.0 5.2 158.6 162.6 0.00 0.0000000 61.9 65.6
2021-05-04 22:20:00 50.2 71.7 41.4 50.2 50.2 5.3 5.6 5.0 161.7 162.6 0.00 0.0000000 61.7 65.4
2021-05-04 22:25:00 49.9 72.5 41.4 48.0 49.9 5.1 5.6 5.0 157.1 168.2 0.00 0.0000000 61.5 65.3
2021-05-04 22:30:00 49.7 73.3 41.5 48.1 49.7 4.6 5.5 4.8 163.3 168.5 0.00 0.0000000 61.3 65.1
2021-05-04 22:35:00 49.5 73.7 41.4 48.0 49.5 4.4 5.3 4.5 154.8 163.1 0.00 0.0000000 61.1 64.9
2021-05-04 22:40:00 49.4 74.2 41.6 47.8 49.4 4.6 5.1 4.6 149.4 157.1 0.00 0.0000000 60.9 64.7
2021-05-04 22:45:00 49.3 74.3 41.5 47.4 49.3 4.9 6.3 5.0 148.9 143.6 0.00 0.0000000 60.7 64.6
2021-05-04 22:50:00 49.8 73.3 41.6 47.5 49.8 5.8 6.2 5.5 158.5 156.1 0.00 0.0000000 60.5 64.4
2021-05-04 22:55:00 49.7 73.6 41.6 47.2 49.7 6.3 6.3 5.6 175.3 160.2 0.00 0.0000000 60.3 64.3
2021-05-04 23:00:00 49.7 73.5 41.5 47.0 49.7 6.5 6.7 5.8 157.6 165.1 0.00 0.0000000 60.1 64.1
2021-05-04 23:05:00 49.9 72.7 41.5 47.4 49.9 6.2 6.9 5.8 165.7 166.0 0.00 0.0000000 59.9 64.0
2021-05-04 23:10:00 50.0 72.7 41.6 48.5 50.0 4.4 7.1 5.8 157.8 164.4 0.00 0.0000000 59.8 63.8
2021-05-04 23:15:00 49.5 74.4 41.7 47.8 49.5 4.7 6.2 4.9 154.0 163.0 0.00 0.0000000 59.6 63.6
2021-05-04 23:20:00 49.2 75.0 41.7 46.9 49.2 5.6 5.6 4.9 158.9 158.2 0.00 0.0000000 59.4 63.5
2021-05-04 23:25:00 49.4 74.9 41.7 47.5 49.4 4.9 6.0 5.2 161.8 161.5 0.00 0.0000000 59.3 63.3
2021-05-04 23:30:00 49.2 75.7 41.9 47.4 49.2 4.9 5.6 4.9 171.5 162.6 0.00 0.0000000 59.1 63.2
2021-05-04 23:35:00 48.9 76.7 41.9 46.8 48.9 5.1 5.5 4.9 159.3 163.1 0.00 0.0000000 58.9 63.1
2021-05-04 23:40:00 48.4 78.2 42.0 46.4 48.4 4.9 5.6 5.2 178.5 172.5 0.00 0.0000000 58.8 62.9
2021-05-04 23:45:00 47.9 79.2 41.8 45.8 47.9 4.9 5.6 5.1 177.0 171.7 0.00 0.0000000 58.6 62.8
2021-05-04 23:50:00 47.5 79.6 41.5 46.1 47.5 3.8 5.1 4.4 179.4 178.0 0.00 0.0000000 58.5 62.6
2021-05-04 23:55:00 47.3 80.5 41.6 45.3 47.3 4.6 4.7 4.2 165.9 174.9 0.00 0.0000000 58.3 62.5
2021-05-05 00:00:00 46.9 81.8 41.6 45.6 46.9 3.7 4.9 4.1 174.6 171.2 0.00 0.0000000 58.2 62.4

Data is courtesy of the NM Climate Center. DO NOT USE IN LEGAL PROCEEDINGS.